Time;durP1;ratioP1;P1;durP2;ratioP2;P2;SDS_P1;SDS_P2;PMS_P1;PMS_P2;Temp;Humidity;BMP_temperature;BMP_pressure;BME280_temperature;BME280_humidity;BME280_pressure;Samples;Min_cycle;Max_cycle;Signal;HPM_P1;HPM_P2
2022/04/02 00:01:19;;;;;;;10.70;4.80;;;1.50;99.90;;;;;;8425878;28;20263;-60
2022/04/02 00:05:19;;;;;;;9.30;4.60;;;1.50;99.90;;;;;;8405844;28;20198;-58
2022/04/02 00:09:21;;;;;;;9.53;4.73;;;1.40;99.90;;;;;;8405429;28;20265;-58
2022/04/02 00:13:23;;;;;;;7.47;4.43;;;1.40;99.90;;;;;;8434354;28;20234;-59
2022/04/02 00:17:24;;;;;;;9.30;4.27;;;1.40;99.90;;;;;;8443209;28;20225;-65
2022/04/02 00:21:25;;;;;;;6.67;3.80;;;1.30;99.90;;;;;;8432809;28;20209;-59
2022/04/02 00:25:26;;;;;;;16.23;4.43;;;1.30;99.90;;;;;;8451700;28;20294;-60
2022/04/02 00:29:27;;;;;;;9.87;4.33;;;1.20;99.90;;;;;;8457081;28;20207;-61
2022/04/02 00:33:28;;;;;;;6.23;3.70;;;1.20;99.90;;;;;;8448449;28;20295;-60
2022/04/02 00:37:28;;;;;;;6.67;4.20;;;1.20;99.90;;;;;;8432041;28;20199;-60
2022/04/02 00:41:29;;;;;;;11.77;5.50;;;1.10;99.90;;;;;;8426056;28;20198;-61
2022/04/02 00:45:30;;;;;;;6.67;3.47;;;1.10;99.90;;;;;;8420347;28;20217;-59
2022/04/02 00:49:31;;;;;;;8.70;4.03;;;1.00;99.90;;;;;;8405688;28;20198;-61
2022/04/02 00:53:45;;;;;;;9.53;4.83;;;1.10;99.90;;;;;;8438598;28;20227;-61
2022/04/02 00:57:47;;;;;;;7.17;3.90;;;1.00;99.90;;;;;;8421152;28;20203;-61
2022/04/02 01:01:48;;;;;;;8.03;3.03;;;0.80;1.00;;;;;;8436309;28;20212;-60
2022/04/02 01:05:49;;;;;;;6.27;3.57;;;0.70;1.00;;;;;;8456459;28;20208;-61
2022/04/02 01:09:50;;;;;;;6.47;3.00;;;0.60;1.00;;;;;;8429631;28;20227;-60
2022/04/02 01:13:51;;;;;;;5.30;2.80;;;0.60;1.00;;;;;;8413288;28;20289;-61
2022/04/02 01:17:52;;;;;;;5.30;2.67;;;0.60;1.00;;;;;;8432046;28;20263;-60
2022/04/02 01:21:54;;;;;;;4.40;2.30;;;0.60;1.00;;;;;;8414631;28;20223;-62
2022/04/02 01:26:00;;;;;;;5.73;2.80;;;0.60;1.00;;;;;;8422213;28;20209;-63
2022/04/02 01:30:01;;;;;;;5.37;3.07;;;0.70;1.00;;;;;;8433373;28;20209;-60
2022/04/02 01:34:02;;;;;;;4.23;2.97;;;0.60;1.00;;;;;;8430174;28;20224;-61
2022/04/02 01:38:03;;;;;;;6.77;2.87;;;0.60;1.00;;;;;;8430338;28;20223;-62
2022/04/02 01:42:06;;;;;;;7.07;3.40;;;0.60;1.00;;;;;;8418999;28;20305;-61
2022/04/02 01:46:07;;;;;;;3.60;2.40;;;0.50;1.00;;;;;;8402904;28;20205;-60
2022/04/02 01:50:10;;;;;;;5.03;2.43;;;0.50;1.00;;;;;;8410430;28;20231;-60
2022/04/02 01:54:11;;;;;;;6.10;2.63;;;0.40;1.00;;;;;;8421393;28;20223;-61
2022/04/02 01:58:12;;;;;;;8.80;2.67;;;0.40;1.00;;;;;;8442047;28;20197;-61
2022/04/02 02:02:14;;;;;;;5.60;2.33;;;0.40;1.00;;;;;;8427977;28;20212;-61
2022/04/02 02:06:15;;;;;;;6.20;2.80;;;0.40;1.00;;;;;;8455165;28;20198;-59
2022/04/02 02:10:16;;;;;;;7.13;2.90;;;0.40;1.00;;;;;;8449502;28;20211;-61
2022/04/02 02:14:17;;;;;;;4.93;2.37;;;0.40;1.00;;;;;;8415602;28;20210;-60
2022/04/02 02:18:18;;;;;;;7.00;2.53;;;0.40;1.00;;;;;;8403527;28;20208;-60
2022/04/02 02:22:19;;;;;;;4.07;2.30;;;0.40;1.00;;;;;;8416861;28;20545;-60
2022/04/02 02:26:19;;;;;;;4.37;2.43;;;0.40;23.20;;;;;;8420096;28;20290;-62
2022/04/02 02:30:20;;;;;;;4.90;2.63;;;0.30;46.10;;;;;;8420925;28;20260;-62
2022/04/02 02:38:41;;;;;;;6.20;3.03;;;0.30;21.00;;;;;;8431484;28;20998;-58
2022/04/02 02:42:42;;;;;;;12.13;2.43;;;0.20;28.50;;;;;;8404673;28;20204;-67
2022/04/02 02:46:42;;;;;;;5.17;2.53;;;0.20;96.40;;;;;;8419724;28;20205;-60
2022/04/02 02:50:43;;;;;;;4.50;2.57;;;0.10;99.90;;;;;;8436138;28;20191;-60
2022/04/02 02:54:44;;;;;;;7.67;2.40;;;0.10;99.90;;;;;;8411995;28;20276;-61
2022/04/02 02:58:45;;;;;;;6.87;2.30;;;0.10;99.90;;;;;;8415691;28;20219;-61
2022/04/02 03:02:46;;;;;;;3.70;2.43;;;0.00;99.90;;;;;;8419669;28;20235;-59
2022/04/02 03:06:47;;;;;;;4.67;2.47;;;0.00;99.90;;;;;;8419081;28;20195;-61
2022/04/02 03:10:48;;;;;;;4.73;2.50;;;-0.10;99.90;;;;;;8419211;28;20211;-62
2022/04/02 03:14:49;;;;;;;4.17;2.10;;;-0.20;99.90;;;;;;8414802;28;20298;-60
2022/04/02 03:18:50;;;;;;;4.03;2.23;;;-0.30;99.90;;;;;;8419456;28;20228;-62
2022/04/02 03:22:51;;;;;;;5.57;2.40;;;-0.40;99.90;;;;;;8435430;28;20214;-60
2022/04/02 03:26:52;;;;;;;4.47;2.10;;;-0.40;99.90;;;;;;8443980;28;20207;-61
2022/04/02 03:30:53;;;;;;;9.97;2.90;;;-0.40;99.90;;;;;;8425528;28;20286;-60
2022/04/02 03:34:54;;;;;;;4.30;2.37;;;-0.50;99.90;;;;;;8430186;28;20223;-60
2022/04/02 03:38:54;;;;;;;7.80;2.73;;;-0.60;99.90;;;;;;8427508;28;20517;-60
2022/04/02 03:42:55;;;;;;;6.17;2.57;;;-0.70;1.00;;;;;;8422594;28;20207;-61
2022/04/02 03:47:08;;;;;;;4.90;2.47;;;-0.80;1.00;;;;;;8425639;28;20372;-60
2022/04/02 03:51:09;;;;;;;4.57;2.17;;;-0.80;1.00;;;;;;8416698;28;20253;-60
2022/04/02 03:55:10;;;;;;;3.67;2.43;;;-0.90;1.00;;;;;;8412385;28;20288;-60
2022/04/02 03:59:12;;;;;;;6.27;2.50;;;-0.90;1.00;;;;;;8410311;28;20215;-59
2022/04/02 04:03:13;;;;;;;4.53;2.30;;;-0.90;1.00;;;;;;8418186;28;20196;-62
2022/04/02 04:07:14;;;;;;;4.20;1.93;;;-1.00;1.00;;;;;;8428908;28;20211;-60
2022/04/02 04:11:16;;;;;;;7.30;2.30;;;-1.10;1.00;;;;;;8399878;28;20333;-60
2022/04/02 04:15:17;;;;;;;6.47;2.27;;;-1.10;1.00;;;;;;8409195;28;20538;-60
2022/04/02 04:19:19;;;;;;;6.50;2.40;;;-1.20;70.30;;;;;;8445049;28;20210;-60
2022/04/02 04:23:19;;;;;;;3.00;1.70;;;-1.20;99.90;;;;;;8415603;28;20207;-60
2022/04/02 04:27:20;;;;;;;4.40;2.37;;;-1.30;99.90;;;;;;8422462;28;20200;-63
2022/04/02 04:31:22;;;;;;;3.40;1.87;;;-1.40;99.90;;;;;;8405160;28;20207;-60
2022/04/02 04:35:22;;;;;;;3.80;2.10;;;-1.50;99.90;;;;;;8418861;28;20234;-61
2022/04/02 04:39:23;;;;;;;6.67;2.53;;;-1.40;99.90;;;;;;8410555;28;20499;-62
2022/04/02 04:43:24;;;;;;;6.30;2.80;;;-1.50;99.90;;;;;;8435837;28;20208;-60
2022/04/02 04:47:25;;;;;;;3.87;2.40;;;-1.50;99.90;;;;;;8451594;28;20283;-59
2022/04/02 04:51:26;;;;;;;7.07;2.37;;;-1.50;99.90;;;;;;8420929;28;20214;-61
2022/04/02 04:55:27;;;;;;;4.47;2.53;;;-1.50;99.90;;;;;;8427916;28;20231;-60
2022/04/02 04:59:28;;;;;;;5.80;3.17;;;-1.50;99.90;;;;;;8422422;28;20302;-61
2022/04/02 05:03:32;;;;;;;5.50;2.47;;;-1.40;99.90;;;;;;8456844;28;20210;-60
2022/04/02 05:07:36;;;;;;;5.30;2.30;;;-1.40;99.90;;;;;;8434010;28;20220;-62
2022/04/02 05:11:37;;;;;;;4.80;2.50;;;-1.40;99.90;;;;;;8404367;28;20280;-62
2022/04/02 05:15:40;;;;;;;5.33;2.40;;;-1.40;99.90;;;;;;8414659;28;20227;-60
2022/04/02 05:19:41;;;;;;;3.83;2.40;;;-1.40;99.90;;;;;;8427888;28;20204;-60
2022/04/02 05:23:42;;;;;;;6.47;3.13;;;-1.30;99.90;;;;;;8411224;28;20311;-62
2022/04/02 05:27:43;;;;;;;9.47;3.60;;;-1.40;99.90;;;;;;8403516;28;20291;-60
2022/04/02 05:31:44;;;;;;;8.23;3.00;;;-1.30;99.90;;;;;;8403110;28;20295;-60
2022/04/02 05:35:45;;;;;;;4.73;2.63;;;-1.40;99.90;;;;;;8408521;28;20211;-60
2022/04/02 05:39:46;;;;;;;6.87;2.80;;;-1.40;99.90;;;;;;8411975;28;20218;-62
2022/04/02 05:43:47;;;;;;;3.80;2.37;;;-1.40;99.90;;;;;;8430204;28;20205;-61
2022/04/02 05:47:50;;;;;;;5.83;2.57;;;-1.40;99.90;;;;;;8441963;28;20226;-60
2022/04/02 05:51:51;;;;;;;110.13;33.63;;;-1.30;99.90;;;;;;8440547;28;20207;-62
2022/04/02 05:55:52;;;;;;;14.07;5.60;;;-1.20;77.90;;;;;;8452618;28;20215;-61
2022/04/02 05:59:54;;;;;;;4.70;2.13;;;-1.00;1.00;;;;;;8413897;28;20212;-61
2022/04/02 06:03:55;;;;;;;5.80;2.30;;;-0.90;1.00;;;;;;8402782;28;20208;-60
2022/04/02 06:07:56;;;;;;;7.23;3.10;;;-0.80;1.00;;;;;;8404884;28;20211;-61
2022/04/02 06:11:56;;;;;;;6.27;3.27;;;-0.60;99.90;;;;;;8422506;28;20214;-61
2022/04/02 06:15:57;;;;;;;5.67;2.80;;;-0.50;99.90;;;;;;8419388;28;20222;-62
2022/04/02 06:19:58;;;;;;;10.87;4.97;;;-0.40;99.90;;;;;;8423012;28;20232;-58
2022/04/02 06:24:04;;;;;;;6.90;3.20;;;-0.20;99.90;;;;;;8428191;28;20196;-60
2022/04/02 06:28:06;;;;;;;9.67;2.90;;;-0.10;99.90;;;;;;8401938;28;20529;-60
2022/04/02 06:32:07;;;;;;;6.17;2.17;;;0.00;99.90;;;;;;8401644;28;20223;-61
2022/04/02 06:36:08;;;;;;;17.97;5.57;;;0.00;99.90;;;;;;8440237;28;20224;-60
2022/04/02 06:40:10;;;;;;;10.33;2.70;;;0.00;99.90;;;;;;8421814;28;20251;-59
2022/04/02 06:44:11;;;;;;;13.07;5.67;;;0.10;99.90;;;;;;8416685;28;20244;-59
2022/04/02 06:48:13;;;;;;;8.93;4.43;;;0.20;99.90;;;;;;8445258;28;20217;-59
2022/04/02 06:52:14;;;;;;;13.90;6.77;;;0.20;99.90;;;;;;8415112;28;20219;-60
2022/04/02 06:56:15;;;;;;;4.73;3.37;;;0.40;99.90;;;;;;8404841;28;20211;-60
2022/04/02 07:00:16;;;;;;;4.33;2.43;;;0.50;58.10;;;;;;8423459;28;20230;-58
2022/04/02 07:04:17;;;;;;;5.10;2.47;;;0.50;12.50;;;;;;8453518;28;20205;-61
2022/04/02 07:08:18;;;;;;;9.53;4.67;;;0.50;38.90;;;;;;8424970;28;20237;-57
2022/04/02 07:12:19;;;;;;;8.07;3.73;;;0.60;30.20;;;;;;8421541;28;20216;-58
2022/04/02 07:16:20;;;;;;;4.70;2.70;;;0.70;12.40;;;;;;8430325;28;20212;-58
2022/04/02 07:20:26;;;;;;;5.93;3.03;;;0.70;15.30;;;;;;8426998;28;20200;-58
2022/04/02 07:24:27;;;;;;;7.60;3.17;;;0.80;1.00;;;;;;8433269;28;20220;-61
2022/04/02 07:28:28;;;;;;;6.27;2.83;;;1.00;13.70;;;;;;8433958;28;20204;-57
2022/04/02 07:32:29;;;;;;;4.13;2.63;;;1.30;1.00;;;;;;8433897;28;20213;-61
2022/04/02 07:37:04;;;;;;;3.53;1.73;;;1.50;1.00;;;;;;8409630;28;20312;-58
2022/04/02 07:41:33;;;;;;;5.70;3.30;;;1.50;1.00;;;;;;8409415;28;20208;-59
2022/04/02 07:45:42;;;;;;;8.70;5.10;;;1.60;1.00;;;;;;8436307;28;20217;-60
2022/04/02 07:49:46;;;;;;;7.23;3.70;;;2.10;1.00;;;;;;8416845;28;20207;-58
2022/04/02 07:53:50;;;;;;;5.90;3.90;;;2.70;99.90;;;;;;8416794;28;20611;-57
2022/04/02 07:57:52;;;;;;;7.40;3.83;;;2.90;99.90;;;;;;8407332;28;20258;-59
2022/04/02 08:01:57;;;;;;;5.23;2.47;;;3.00;99.90;;;;;;8414042;28;20224;-60
2022/04/02 08:05:59;;;;;;;3.77;2.00;;;3.00;99.90;;;;;;8405932;28;20224;-59
2022/04/02 08:10:05;;;;;;;8.07;4.07;;;3.20;99.90;;;;;;8405821;28;20212;-58
2022/04/02 08:14:08;;;;;;;3.87;2.10;;;3.40;99.90;;;;;;8410277;28;20220;-60
2022/04/02 08:18:09;;;;;;;13.77;7.23;;;3.30;99.90;;;;;;8451690;28;20215;-58
2022/04/02 08:22:10;;;;;;;5.57;2.70;;;3.50;99.90;;;;;;8437597;28;20200;-59
2022/04/02 08:26:53;;;;;;;4.37;1.93;;;3.70;99.90;;;;;;8457478;28;20207;-58
2022/04/02 08:31:06;;;;;;;4.97;3.40;;;3.70;99.90;;;;;;8456512;28;20467;-60
2022/04/02 08:35:09;;;;;;;3.83;2.33;;;3.80;99.90;;;;;;8433675;28;20311;-59
2022/04/02 08:39:38;;;;;;;6.63;2.20;;;3.90;99.90;;;;;;8411539;28;20211;-57
2022/04/02 08:43:59;;;;;;;4.00;2.40;;;4.00;99.90;;;;;;8411999;28;20205;-57
2022/04/02 08:48:22;;;;;;;5.43;2.93;;;4.10;99.90;;;;;;8425987;28;20207;-59
2022/04/02 08:52:45;;;;;;;4.23;2.80;;;4.50;99.90;;;;;;8417615;28;20244;-59
2022/04/02 08:56:48;;;;;;;8.10;2.93;;;4.60;99.90;;;;;;8405654;28;20235;-59
2022/04/02 09:01:09;;;;;;;3.63;2.07;;;4.80;99.90;;;;;;8443012;28;20302;-60
2022/04/02 09:05:22;;;;;;;7.30;2.60;;;4.60;99.90;;;;;;8452071;28;20210;-57
2022/04/02 09:09:43;;;;;;;3.83;2.20;;;4.60;99.90;;;;;;8418079;28;20228;-58
2022/04/02 09:14:18;;;;;;;8.03;4.33;;;4.80;99.90;;;;;;8412230;28;20230;-60
2022/04/02 09:18:56;;;;;;;8.60;4.13;;;4.80;99.90;;;;;;8411408;28;20214;-58
2022/04/02 09:23:16;;;;;;;3.00;1.63;;;5.30;49.80;;;;;;8420825;28;20225;-61
2022/04/02 09:27:53;;;;;;;6.43;3.57;;;5.00;32.90;;;;;;8436908;28;20267;-58
2022/04/02 09:32:16;;;;;;;4.73;3.50;;;5.20;50.90;;;;;;8312990;28;20291;-58
2022/04/02 09:36:50;;;;;;;6.70;3.90;;;5.70;19.80;;;;;;8405148;28;20252;-59
2022/04/02 09:40:52;;;;;;;8.67;3.30;;;5.70;30.20;;;;;;8429910;28;20212;-58
2022/04/02 09:45:05;;;;;;;16.57;6.40;;;5.50;22.90;;;;;;8437338;28;20425;-61
2022/04/02 09:49:35;;;;;;;7.23;2.83;;;5.60;32.10;;;;;;8445389;28;20231;-59
2022/04/02 09:53:41;;;;;;;4.40;2.03;;;5.90;81.00;;;;;;8416329;28;20195;-61
2022/04/02 09:57:45;;;;;;;6.60;3.43;;;5.90;81.00;;;;;;8411579;28;20267;-58
2022/04/02 10:02:01;;;;;;;5.30;3.67;;;5.80;52.40;;;;;;8397632;28;20244;-61
2022/04/02 10:06:17;;;;;;;5.63;3.07;;;5.90;30.00;;;;;;8398818;28;20209;-61
2022/04/02 10:10:26;;;;;;;7.10;5.17;;;5.60;53.20;;;;;;8407536;28;20214;-59
2022/04/02 10:14:28;;;;;;;5.43;2.60;;;5.80;22.40;;;;;;8433626;28;20215;-58
2022/04/02 10:18:35;;;;;;;8.07;3.50;;;5.90;28.20;;;;;;8400671;28;20237;-60
2022/04/02 10:22:42;;;;;;;6.50;3.80;;;5.70;18.40;;;;;;8409861;28;20235;-57
2022/04/02 10:26:49;;;;;;;6.60;3.50;;;5.80;9.50;;;;;;8396632;28;20734;-61
2022/04/02 10:30:55;;;;;;;5.27;2.40;;;5.80;21.50;;;;;;8415508;28;20210;-57
2022/04/02 10:35:04;;;;;;;8.27;4.67;;;5.90;19.40;;;;;;8411026;28;20278;-58
2022/04/02 10:39:08;;;;;;;8.03;3.87;;;6.20;1.00;;;;;;8414179;28;20207;-62
2022/04/02 10:43:33;;;;;;;5.63;3.30;;;6.50;1.00;;;;;;8425799;28;20299;-60
2022/04/02 10:48:10;;;;;;;6.83;2.47;;;6.50;1.00;;;;;;8404158;28;20228;-59
2022/04/02 10:52:13;;;;;;;6.13;2.17;;;6.50;1.00;;;;;;8429670;28;20211;-59
2022/04/02 10:56:26;;;;;;;6.73;3.90;;;6.20;1.00;;;;;;8418890;28;20232;-59
2022/04/02 11:00:29;;;;;;;4.00;2.43;;;6.40;1.00;;;;;;8404692;28;20221;-58
2022/04/02 11:04:42;;;;;;;8.43;5.17;;;6.50;1.00;;;;;;8408145;28;20208;-57
2022/04/02 11:08:43;;;;;;;6.40;3.30;;;6.80;1.00;;;;;;8413829;28;20583;-59
2022/04/02 11:12:46;;;;;;;12.40;5.87;;;6.80;1.00;;;;;;8416096;28;20245;-59
2022/04/02 11:16:48;;;;;;;2.90;1.97;;;7.00;1.00;;;;;;8416953;28;20302;-60
2022/04/02 11:20:51;;;;;;;4.83;2.40;;;6.60;1.00;;;;;;8397673;28;20239;-58
2022/04/02 11:25:06;;;;;;;3.87;2.30;;;6.40;1.00;;;;;;8422516;28;20228;-59
2022/04/02 11:29:09;;;;;;;3.07;1.83;;;6.40;1.00;;;;;;8423190;28;20200;-59
2022/04/02 11:33:18;;;;;;;8.00;4.37;;;6.60;1.00;;;;;;8430879;28;20239;-61
2022/04/02 11:37:33;;;;;;;9.13;3.73;;;6.80;1.00;;;;;;8425217;28;20295;-59
2022/04/02 11:41:38;;;;;;;7.93;4.03;;;7.00;1.00;;;;;;8438195;28;20196;-58
2022/04/02 11:45:40;;;;;;;3.77;2.83;;;7.20;1.00;;;;;;8444155;28;20208;-57
2022/04/02 11:49:43;;;;;;;5.60;2.37;;;7.20;1.00;;;;;;8416573;28;20218;-57
2022/04/02 11:53:44;;;;;;;3.47;2.30;;;6.90;1.00;;;;;;8417417;28;20212;-58
2022/04/02 11:58:00;;;;;;;5.60;2.97;;;6.60;1.00;;;;;;8420458;28;20200;-58
2022/04/02 12:02:01;;;;;;;17.10;6.33;;;6.90;1.00;;;;;;8449757;28;20208;-59
2022/04/02 12:06:11;;;;;;;8.17;2.90;;;7.50;1.00;;;;;;8458543;28;20200;-58
2022/04/02 12:10:17;;;;;;;6.10;2.87;;;7.80;1.00;;;;;;8440699;28;20203;-57
2022/04/02 12:14:38;;;;;;;5.43;1.77;;;8.00;1.00;;;;;;8434788;28;20245;-59
2022/04/02 12:19:05;;;;;;;11.63;2.20;;;8.10;1.00;;;;;;8434195;28;20203;-59
2022/04/02 12:23:15;;;;;;;5.63;2.20;;;7.90;1.00;;;;;;8443211;28;20262;-62
2022/04/02 12:27:24;;;;;;;3.10;2.10;;;7.50;1.00;;;;;;8457873;28;20234;-59
2022/04/02 12:31:30;;;;;;;7.03;2.87;;;7.60;1.00;;;;;;8439854;28;20203;-58
2022/04/02 12:35:32;;;;;;;4.57;3.27;;;8.10;1.00;;;;;;8421987;28;20340;-59
2022/04/02 12:39:33;;;;;;;6.90;3.30;;;8.50;1.00;;;;;;8427779;28;20215;-58
2022/04/02 12:43:40;;;;;;;5.30;2.40;;;8.60;1.00;;;;;;8410935;28;20269;-61
2022/04/02 12:47:41;;;;;;;4.97;3.00;;;8.40;1.00;;;;;;8412171;28;20206;-59
2022/04/02 12:51:42;;;;;;;5.83;2.03;;;8.40;1.00;;;;;;8409811;28;20203;-58
2022/04/02 12:55:46;;;;;;;4.77;2.73;;;7.90;1.00;;;;;;8421840;28;20230;-58
2022/04/02 12:59:55;;;;;;;7.63;4.20;;;8.10;1.00;;;;;;8427693;28;20242;-59
2022/04/02 13:03:59;;;;;;;11.07;3.97;;;8.70;1.00;;;;;;8399907;28;20530;-58
2022/04/02 13:08:04;;;;;;;7.47;2.00;;;8.70;1.00;;;;;;8417679;28;20204;-59
2022/04/02 13:12:08;;;;;;;9.57;3.60;;;8.30;1.00;;;;;;8399550;28;20239;-62
2022/04/02 13:16:14;;;;;;;7.30;3.27;;;8.00;1.00;;;;;;8425264;28;20204;-58
2022/04/02 13:20:30;;;;;;;7.87;4.60;;;8.00;1.00;;;;;;8412134;28;20199;-58
2022/04/02 13:25:00;;;;;;;5.10;2.43;;;8.30;1.00;;;;;;8437946;28;20299;-58
2022/04/02 13:29:34;;;;;;;6.40;2.97;;;8.40;1.00;;;;;;8398489;28;20242;-59
2022/04/02 13:33:57;;;;;;;5.90;1.93;;;8.60;1.00;;;;;;8425716;28;20320;-59
2022/04/02 13:38:08;;;;;;;4.80;2.50;;;8.90;1.00;;;;;;8422488;28;20492;-64
2022/04/02 13:42:16;;;;;;;6.33;2.20;;;8.20;1.00;;;;;;8443596;28;20199;-60
2022/04/02 13:46:25;;;;;;;5.03;2.10;;;7.80;1.00;;;;;;8427736;28;20250;-60
2022/04/02 13:50:27;;;;;;;8.60;4.53;;;7.60;1.00;;;;;;8413503;28;20211;-58
2022/04/02 13:54:45;;;;;;;4.20;3.10;;;7.60;1.00;;;;;;8428716;28;20223;-58
2022/04/02 13:58:48;;;;;;;8.97;4.93;;;7.90;1.00;;;;;;8430129;28;20196;-59
2022/04/02 14:02:52;;;;;;;19.97;14.00;;;8.00;1.00;;;;;;8404033;28;20295;-57
2022/04/02 14:06:58;;;;;;;20.83;9.13;;;8.20;1.00;;;;;;8402460;28;20219;-59
2022/04/02 14:11:00;;;;;;;14.40;9.50;;;8.20;1.00;;;;;;8419009;28;20204;-58
2022/04/02 14:15:12;;;;;;;19.43;14.17;;;8.20;1.00;;;;;;8437524;28;20234;-60
2022/04/02 14:19:16;;;;;;;28.20;14.60;;;8.20;1.00;;;;;;8429403;28;20204;-61
2022/04/02 14:23:32;;;;;;;38.70;19.30;;;8.00;1.00;;;;;;8411897;28;20215;-58
2022/04/02 14:27:57;;;;;;;9.50;6.10;;;7.90;1.00;;;;;;8421203;28;20196;-59
2022/04/02 14:32:36;;;;;;;6.73;2.83;;;7.90;1.00;;;;;;8401893;28;20225;-59
2022/04/02 14:37:08;;;;;;;3.33;2.00;;;7.80;1.00;;;;;;8426491;28;20200;-58
2022/04/02 14:41:48;;;;;;;9.00;2.83;;;7.10;1.00;;;;;;8430557;28;20260;-58
2022/04/02 14:46:11;;;;;;;37.60;18.53;;;7.10;1.00;;;;;;8429185;28;20235;-61
2022/04/02 14:50:39;;;;;;;24.00;10.93;;;7.30;1.00;;;;;;8432550;28;20199;-60
2022/04/02 14:54:46;;;;;;;16.73;8.00;;;7.50;1.00;;;;;;8409567;28;20224;-58
2022/04/02 14:59:11;;;;;;;7.63;4.50;;;7.70;1.00;;;;;;8434592;28;20196;-57
2022/04/02 15:03:35;;;;;;;6.77;3.70;;;7.80;1.00;;;;;;8403008;28;20207;-60
2022/04/02 15:08:06;;;;;;;5.40;2.20;;;7.50;1.00;;;;;;8401189;28;20215;-58
2022/04/02 15:12:11;;;;;;;9.67;3.10;;;7.20;1.00;;;;;;8419726;28;20218;-59
2022/04/02 15:16:28;;;;;;;11.57;5.13;;;7.10;1.00;;;;;;8426567;28;20227;-58
2022/04/02 15:20:29;;;;;;;6.27;2.23;;;7.40;1.00;;;;;;8436001;28;20208;-60
2022/04/02 15:24:39;;;;;;;7.67;3.33;;;7.20;1.00;;;;;;8428277;28;20262;-58
2022/04/02 15:28:41;;;;;;;30.97;15.50;;;7.00;1.00;;;;;;8422152;28;20206;-58
2022/04/02 15:32:42;;;;;;;19.23;9.63;;;7.20;1.00;;;;;;8404083;28;20204;-60
2022/04/02 15:37:06;;;;;;;15.73;7.17;;;7.50;1.00;;;;;;8433551;28;20211;-59
2022/04/02 15:41:07;;;;;;;6.70;3.53;;;7.40;1.00;;;;;;8400681;28;20296;-60
2022/04/02 15:45:08;;;;;;;14.27;7.30;;;7.40;1.00;;;;;;8422810;28;20204;-57
2022/04/02 15:49:29;;;;;;;4.10;1.93;;;7.30;1.00;;;;;;8439571;28;20200;-58
2022/04/02 15:53:29;;;;;;;4.57;2.50;;;7.10;1.00;;;;;;8437445;28;20228;-59
2022/04/02 15:57:30;;;;;;;11.83;5.40;;;7.00;1.00;;;;;;8420610;28;20202;-69
2022/04/02 16:01:39;;;;;;;5.97;3.00;;;7.10;1.00;;;;;;8410281;28;20220;-61
2022/04/02 16:05:40;;;;;;;6.23;3.07;;;7.10;1.00;;;;;;8433240;28;20204;-62
2022/04/02 16:10:17;;;;;;;13.80;8.03;;;7.00;1.00;;;;;;8412092;28;20216;-59
2022/04/02 16:14:32;;;;;;;4.13;2.37;;;7.00;1.00;;;;;;8291561;28;20232;-59
2022/04/02 16:18:34;;;;;;;5.90;3.00;;;6.90;1.00;;;;;;8435046;28;20291;-61
2022/04/02 16:22:35;;;;;;;3.27;2.30;;;6.80;1.00;;;;;;8417389;28;20307;-60
2022/04/02 16:26:36;;;;;;;5.83;2.77;;;6.70;1.00;;;;;;8405129;28;20200;-59
2022/04/02 16:30:37;;;;;;;7.07;3.20;;;6.80;1.00;;;;;;8423222;28;20207;-60
2022/04/02 16:34:40;;;;;;;6.33;3.30;;;6.70;1.00;;;;;;8408547;28;20223;-60
2022/04/02 16:38:52;;;;;;;12.80;5.33;;;6.60;1.00;;;;;;8414521;28;20208;-60
2022/04/02 16:43:04;;;;;;;11.50;4.50;;;6.50;1.00;;;;;;8432368;28;20242;-61
2022/04/02 16:47:11;;;;;;;13.57;5.37;;;6.30;1.00;;;;;;8415989;28;20214;-60
2022/04/02 16:51:12;;;;;;;23.00;10.53;;;6.20;1.00;;;;;;8442061;28;20260;-61
2022/04/02 16:55:16;;;;;;;11.17;5.17;;;6.10;1.00;;;;;;8431000;28;20268;-60
2022/04/02 16:59:17;;;;;;;5.30;2.50;;;6.00;1.00;;;;;;8427586;28;20595;-60
2022/04/02 17:03:22;;;;;;;7.07;2.80;;;5.80;1.00;;;;;;8421950;28;20191;-61
2022/04/02 17:07:23;;;;;;;4.77;2.87;;;5.60;1.00;;;;;;8424866;28;20217;-61
2022/04/02 17:11:39;;;;;;;8.67;2.80;;;5.40;1.00;;;;;;8404646;28;20205;-60
2022/04/02 17:16:06;;;;;;;9.60;3.20;;;5.30;1.00;;;;;;8425973;28;20228;-60
2022/04/02 17:20:07;;;;;;;8.70;3.97;;;5.20;1.00;;;;;;8443107;28;20336;-60
2022/04/02 17:24:14;;;;;;;10.43;4.93;;;5.00;1.00;;;;;;8434828;28;20222;-59
2022/04/02 17:28:15;;;;;;;9.00;4.60;;;4.90;1.00;;;;;;8427977;28;20196;-59
2022/04/02 17:32:17;;;;;;;17.17;8.17;;;4.80;1.00;;;;;;8404557;28;20204;-60
2022/04/02 17:36:26;;;;;;;10.10;4.13;;;4.70;1.00;;;;;;8425307;28;20219;-60
2022/04/02 17:40:33;;;;;;;9.67;5.13;;;4.60;1.00;;;;;;8416000;28;20319;-58
2022/04/02 17:44:34;;;;;;;12.00;5.53;;;4.50;1.00;;;;;;8415761;28;20208;-58
2022/04/02 17:48:35;;;;;;;11.60;4.80;;;4.40;2.80;;;;;;8407793;28;20204;-59
2022/04/02 17:52:35;;;;;;;7.27;2.97;;;4.30;15.60;;;;;;8419416;28;20216;-59
2022/04/02 17:56:36;;;;;;;11.43;5.27;;;4.10;23.60;;;;;;8412275;28;20222;-62
2022/04/02 18:00:43;;;;;;;16.20;9.27;;;4.00;33.40;;;;;;8433250;28;20209;-60
2022/04/02 18:04:44;;;;;;;13.17;6.63;;;4.00;44.70;;;;;;8398251;28;20387;-59
2022/04/02 18:08:45;;;;;;;12.03;5.97;;;4.00;41.10;;;;;;8396308;28;20248;-60
2022/04/02 18:12:46;;;;;;;7.70;3.53;;;4.00;47.50;;;;;;8403414;28;20313;-60
2022/04/02 18:16:46;;;;;;;6.07;2.67;;;3.90;49.10;;;;;;8440439;28;20203;-61
2022/04/02 18:20:47;;;;;;;5.83;2.87;;;3.80;58.50;;;;;;8411676;28;20196;-60
2022/04/02 18:24:48;;;;;;;8.37;4.57;;;3.70;65.00;;;;;;8404632;28;20211;-61
2022/04/02 18:28:49;;;;;;;7.37;4.10;;;3.70;82.30;;;;;;8414515;28;20260;-60
2022/04/02 18:32:50;;;;;;;12.07;5.40;;;3.60;90.70;;;;;;8396951;28;20212;-59
2022/04/02 18:36:51;;;;;;;11.23;4.10;;;3.50;95.10;;;;;;8408917;28;20301;-61
2022/04/02 18:40:52;;;;;;;8.53;4.27;;;3.40;99.90;;;;;;8420330;28;20678;-60
2022/04/02 18:44:53;;;;;;;9.73;5.20;;;3.50;99.90;;;;;;8436794;28;20211;-61
2022/04/02 18:48:54;;;;;;;9.33;4.23;;;3.40;99.90;;;;;;8447911;28;20199;-60
2022/04/02 18:52:55;;;;;;;8.00;3.83;;;3.40;99.90;;;;;;8431946;28;20289;-60
2022/04/02 18:56:56;;;;;;;5.97;2.57;;;3.30;99.90;;;;;;8421804;28;20211;-61
2022/04/02 19:00:57;;;;;;;4.90;2.50;;;3.30;99.90;;;;;;8411534;28;20311;-59
2022/04/02 19:04:57;;;;;;;15.33;5.80;;;3.30;99.90;;;;;;8419470;28;20241;-59
2022/04/02 19:08:58;;;;;;;6.47;3.17;;;3.40;99.90;;;;;;8394858;28;20216;-60
2022/04/02 19:12:59;;;;;;;6.70;3.00;;;3.40;99.50;;;;;;8404008;28;20257;-62
2022/04/02 19:17:00;;;;;;;6.73;2.50;;;3.40;99.90;;;;;;8438015;28;20204;-60
2022/04/02 19:21:02;;;;;;;3.90;2.17;;;3.40;96.70;;;;;;8426840;28;20431;-60
2022/04/02 19:25:05;;;;;;;5.30;2.57;;;3.50;98.00;;;;;;8414027;28;20270;-59
2022/04/02 19:29:06;;;;;;;6.00;2.73;;;3.50;90.20;;;;;;8395593;28;20208;-60
2022/04/02 19:33:06;;;;;;;5.77;1.80;;;3.50;90.50;;;;;;8395358;28;20211;-59
2022/04/02 19:37:07;;;;;;;3.90;2.20;;;3.50;77.60;;;;;;8406356;28;20204;-59
2022/04/02 19:41:10;;;;;;;5.27;2.10;;;3.40;93.80;;;;;;8422369;28;20316;-59
2022/04/02 19:45:11;;;;;;;3.47;2.30;;;3.30;93.90;;;;;;8443627;28;20263;-61
2022/04/02 19:49:12;;;;;;;4.10;2.07;;;3.20;96.40;;;;;;8420339;28;20665;-60
2022/04/02 19:53:13;;;;;;;5.33;2.77;;;3.10;95.70;;;;;;8417935;28;20236;-61
2022/04/02 19:57:13;;;;;;;6.00;2.40;;;3.10;92.00;;;;;;8429216;28;20222;-60
2022/04/02 20:01:14;;;;;;;7.83;2.63;;;3.00;92.70;;;;;;8415991;28;20208;-59
2022/04/02 20:05:15;;;;;;;5.80;3.30;;;2.90;98.40;;;;;;8405403;28;20294;-60
2022/04/02 20:09:16;;;;;;;7.03;3.03;;;2.70;99.90;;;;;;8438803;28;20195;-60
2022/04/02 20:13:17;;;;;;;4.47;2.33;;;2.60;99.90;;;;;;8453376;28;20302;-59
2022/04/02 20:17:18;;;;;;;9.53;3.10;;;2.50;99.90;;;;;;8450131;28;20207;-61
2022/04/02 20:21:19;;;;;;;6.53;2.53;;;2.50;99.90;;;;;;8435679;28;20199;-59
2022/04/02 20:25:20;;;;;;;3.60;2.00;;;2.30;99.90;;;;;;8457210;28;20196;-60
2022/04/02 20:29:22;;;;;;;3.73;2.30;;;2.20;99.90;;;;;;8428920;28;20237;-60
2022/04/02 20:33:23;;;;;;;5.60;2.47;;;2.20;99.90;;;;;;8404374;28;20214;-60
2022/04/02 20:37:25;;;;;;;5.47;2.57;;;2.10;99.90;;;;;;8434941;28;20207;-61
2022/04/02 20:41:26;;;;;;;4.60;2.37;;;1.90;99.90;;;;;;8404929;28;20208;-61
2022/04/02 20:45:27;;;;;;;6.70;2.70;;;1.80;99.90;;;;;;8425198;28;20204;-61
2022/04/02 20:49:28;;;;;;;7.30;2.60;;;1.70;99.90;;;;;;8429107;28;20234;-59
2022/04/02 20:53:29;;;;;;;8.40;2.30;;;1.60;99.90;;;;;;8433494;28;20305;-62
2022/04/02 20:57:29;;;;;;;5.97;3.00;;;1.50;99.90;;;;;;8430585;28;20208;-62
2022/04/02 21:01:32;;;;;;;7.23;3.63;;;1.50;99.90;;;;;;8397940;28;20209;-61
2022/04/02 21:05:33;;;;;;;16.47;4.83;;;1.40;99.90;;;;;;8398933;28;20205;-60
2022/04/02 21:09:35;;;;;;;9.07;4.23;;;1.30;99.90;;;;;;8418777;28;20213;-63
2022/04/02 21:13:38;;;;;;;8.03;3.70;;;1.20;99.90;;;;;;8409813;28;20547;-60
2022/04/02 21:17:39;;;;;;;11.23;4.63;;;1.10;99.90;;;;;;8419984;28;20298;-63
2022/04/02 21:21:42;;;;;;;10.13;4.90;;;1.10;99.90;;;;;;8422079;28;20649;-61
2022/04/02 21:25:43;;;;;;;9.13;4.17;;;1.00;99.90;;;;;;8442264;28;20222;-61
2022/04/02 21:29:44;;;;;;;12.00;3.77;;;0.80;99.90;;;;;;8450022;28;20208;-60
2022/04/02 21:33:45;;;;;;;11.03;4.77;;;0.80;99.90;;;;;;8440888;28;20218;-60
2022/04/02 21:37:46;;;;;;;12.73;4.43;;;0.70;99.90;;;;;;8421207;28;20266;-61
2022/04/02 21:41:47;;;;;;;11.17;5.73;;;0.70;99.90;;;;;;8398271;28;20201;-60